Time;durP1;ratioP1;P1;durP2;ratioP2;P2;SDS_P1;SDS_P2;PMS_P1;PMS_P2;Temp;Humidity;BMP_temperature;BMP_pressure;BME280_temperature;BME280_humidity;BME280_pressure;Samples;Min_cycle;Max_cycle;Signal;HPM_P1;HPM_P2
2022/09/15 00:02:18;;;;;;;;;;;;;;;26.09;nan;100304.09;5034109;28;1103;-31
2022/09/15 00:04:45;;;;;;;;;;;;;;;26.06;nan;100299.06;5034043;28;1193;-31
2022/09/15 00:07:12;;;;;;;;;;;;;;;26.05;nan;100302.72;5033778;28;1008;-35
2022/09/15 00:09:38;;;;;;;;;;;;;;;26.06;nan;100305.22;5034062;28;1257;-35
2022/09/15 00:12:05;;;;;;;;;;;;;;;26.05;nan;100300.88;5034250;28;1032;-35
2022/09/15 00:14:32;;;;;;;;;;;;;;;26.06;nan;100296.38;5034002;28;1914;-35
2022/09/15 00:16:59;;;;;;;;;;;;;;;25.95;nan;100299.22;5033837;28;1025;-34
2022/09/15 00:19:25;;;;;;;;;;;;;;;26.02;nan;100293.16;5033888;28;1215;-37
2022/09/15 00:21:52;;;;;;;;;;;;;;;25.99;nan;100295.31;5033748;28;1032;-32
2022/09/15 00:24:19;;;;;;;;;;;;;;;26.05;nan;100286.72;5033851;28;1213;-34
2022/09/15 00:26:45;;;;;;;;;;;;;;;26.05;nan;100284.03;5033884;28;1487;-30
2022/09/15 00:29:12;;;;;;;;;;;;;;;26.00;nan;100284.47;5033749;28;902;-32
2022/09/15 00:31:39;;;;;;;;;;;;;;;25.96;nan;100287.59;5033575;28;1130;-32
2022/09/15 00:34:06;;;;;;;;;;;;;;;26.03;nan;100286.84;5033752;28;1162;-34
2022/09/15 00:36:32;;;;;;;;;;;;;;;25.96;nan;100288.41;5033270;28;1910;-33
2022/09/15 00:38:59;;;;;;;;;;;;;;;25.94;nan;100287.72;5033645;28;938;-30
2022/09/15 00:41:26;;;;;;;;;;;;;;;25.83;nan;100281.72;5033433;28;1280;-30
2022/09/15 00:43:55;;;;;;;;;;;;;;;25.76;nan;100286.78;5033039;28;740;-33
2022/09/15 00:46:27;;;;;;;;;;;;;;;25.86;nan;100284.09;5033285;28;1197;-31
2022/09/15 00:49:10;;;;;;;;;;;;;;;25.78;nan;100279.44;5033181;28;1294;-33
2022/09/15 00:51:37;;;;;;;;;;;;;;;25.83;nan;100279.88;5033161;28;1452;-33
2022/09/15 00:54:05;;;;;;;;;;;;;;;25.86;nan;100276.94;5033332;28;1089;-34
2022/09/15 00:56:33;;;;;;;;;;;;;;;25.80;nan;100282.84;5033156;28;1989;-33
2022/09/15 00:59:02;;;;;;;;;;;;;;;25.67;nan;100274.28;5032292;28;826;-31
2022/09/15 01:01:48;;;;;;;;;;;;;;;25.80;nan;100272.16;5033512;28;1032;-33
2022/09/15 01:04:15;;;;;;;;;;;;;;;25.67;nan;100276.13;5033433;28;1199;-31
2022/09/15 01:06:51;;;;;;;;;;;;;;;25.74;nan;100279.91;5033203;28;1028;-34
2022/09/15 01:09:18;;;;;;;;;;;;;;;25.77;nan;100272.47;5033362;28;1352;-34
2022/09/15 01:11:45;;;;;;;;;;;;;;;25.72;nan;100273.84;5033414;28;1094;-29
2022/09/15 01:14:12;;;;;;;;;;;;;;;25.73;nan;100271.06;5032984;28;809;-31
2022/09/15 01:16:50;;;;;;;;;;;;;;;25.69;nan;100268.81;5032923;28;1914;-36
2022/09/15 01:19:51;;;;;;;;;;;;;;;25.72;nan;100271.19;5033510;28;1286;-34
2022/09/15 01:22:17;;;;;;;;;;;;;;;25.65;nan;100270.09;5033056;28;998;-33
2022/09/15 01:24:44;;;;;;;;;;;;;;;25.63;nan;100270.22;5033339;28;1217;-34
2022/09/15 01:27:29;;;;;;;;;;;;;;;25.67;nan;100276.97;5033377;28;1021;-32
2022/09/15 01:30:08;;;;;;;;;;;;;;;25.48;nan;100272.50;5032904;28;1359;-33
2022/09/15 01:33:02;;;;;;;;;;;;;;;25.59;nan;100279.50;5033357;28;918;-33
2022/09/15 01:35:32;;;;;;;;;;;;;;;25.58;nan;100282.31;5032914;28;1911;-37
2022/09/15 01:38:11;;;;;;;;;;;;;;;25.62;nan;100278.38;5033446;28;1022;-33
2022/09/15 01:40:51;;;;;;;;;;;;;;;25.58;nan;100283.16;5033564;28;1352;-35
2022/09/15 01:43:19;;;;;;;;;;;;;;;25.61;nan;100282.03;5033381;28;1088;-31
2022/09/15 01:45:47;;;;;;;;;;;;;;;25.57;nan;100278.78;5043296;28;1573;-33
2022/09/15 01:48:15;;;;;;;;;;;;;;;25.56;nan;100281.63;5043695;28;1393;-33
2022/09/15 01:50:43;;;;;;;;;;;;;;;25.47;nan;100276.09;5032631;28;1205;-31
2022/09/15 01:53:13;;;;;;;;;;;;;;;25.46;nan;100279.78;5032179;28;1613;-35
2022/09/15 01:55:42;;;;;;;;;;;;;;;25.51;nan;100272.22;5048208;28;1914;-34
2022/09/15 01:58:08;;;;;;;;;;;;;;;25.48;nan;100271.59;5072018;28;1054;-32
2022/09/15 02:00:39;;;;;;;;;;;;;;;25.44;nan;100271.03;5056314;28;1209;-32
2022/09/15 02:03:12;;;;;;;;;;;;;;;25.40;nan;100275.00;5056759;28;1063;-33
2022/09/15 02:05:42;;;;;;;;;;;;;;;25.33;nan;100271.22;5056309;28;1272;-34
2022/09/15 02:08:12;;;;;;;;;;;;;;;25.37;nan;100277.94;5056273;28;1577;-33
2022/09/15 02:10:42;;;;;;;;;;;;;;;25.37;nan;100267.28;5056478;28;1332;-35
2022/09/15 02:13:15;;;;;;;;;;;;;;;25.34;nan;100270.22;5056737;28;1086;-30
2022/09/15 02:15:50;;;;;;;;;;;;;;;25.33;nan;100273.03;5056293;28;1985;-38
2022/09/15 02:18:29;;;;;;;;;;;;;;;25.35;nan;100274.56;5056503;28;1022;-34
2022/09/15 02:21:01;;;;;;;;;;;;;;;25.31;nan;100264.34;5055914;28;1360;-31
2022/09/15 02:23:30;;;;;;;;;;;;;;;25.28;nan;100265.47;5056469;28;1151;-33
2022/09/15 02:26:03;;;;;;;;;;;;;;;25.34;nan;100264.91;5056013;28;1185;-28
2022/09/15 02:28:32;;;;;;;;;;;;;;;25.35;nan;100266.56;5056394;28;1227;-34
2022/09/15 02:31:01;;;;;;;;;;;;;;;25.31;nan;100265.19;5056171;28;1217;-34
2022/09/15 02:33:32;;;;;;;;;;;;;;;25.23;nan;100256.22;5056407;28;1144;-36
2022/09/15 02:35:59;;;;;;;;;;;;;;;25.27;nan;100254.94;5055638;28;1910;-32
2022/09/15 02:38:28;;;;;;;;;;;;;;;25.27;nan;100262.94;5087916;28;1150;-35
2022/09/15 02:40:55;;;;;;;;;;;;;;;25.22;nan;100258.03;5055709;28;1197;-31
2022/09/15 02:43:22;;;;;;;;;;;;;;;25.28;nan;100249.47;5056178;28;1211;-33
2022/09/15 02:45:49;;;;;;;;;;;;;;;25.23;nan;100245.56;5055822;28;1382;-35
2022/09/15 02:48:16;;;;;;;;;;;;;;;25.15;nan;100251.56;5055671;28;1506;-31
2022/09/15 02:50:43;;;;;;;;;;;;;;;25.19;nan;100252.97;5055356;28;1371;-33
2022/09/15 02:53:09;;;;;;;;;;;;;;;25.14;nan;100252.53;5055806;28;1135;-37
2022/09/15 02:55:36;;;;;;;;;;;;;;;25.15;nan;100251.56;5055292;28;1909;-32
2022/09/15 02:58:03;;;;;;;;;;;;;;;25.06;nan;100246.22;5055687;28;1031;-31
2022/09/15 03:00:30;;;;;;;;;;;;;;;25.04;nan;100246.38;5055520;28;1280;-35
2022/09/15 03:02:57;;;;;;;;;;;;;;;25.12;nan;100249.19;5055536;28;926;-34
2022/09/15 03:05:25;;;;;;;;;;;;;;;25.07;nan;100245.25;5086904;28;1225;-38
2022/09/15 03:07:52;;;;;;;;;;;;;;;25.05;nan;100248.03;5050292;28;1438;-38
2022/09/15 03:10:19;;;;;;;;;;;;;;;25.00;nan;100240.50;5046681;28;1268;-34
2022/09/15 03:12:48;;;;;;;;;;;;;;;25.02;nan;100244.84;5055100;28;1032;-35
2022/09/15 03:15:16;;;;;;;;;;;;;;;25.03;nan;100239.38;5055170;28;1209;-36
2022/09/15 03:17:45;;;;;;;;;;;;;;;24.96;nan;100243.56;5035335;28;1910;-32
2022/09/15 03:20:13;;;;;;;;;;;;;;;24.98;nan;100253.13;5035308;28;1221;-37
2022/09/15 03:22:40;;;;;;;;;;;;;;;24.96;nan;100249.72;5035593;28;1026;-33
2022/09/15 03:25:08;;;;;;;;;;;;;;;24.96;nan;100256.88;5050653;28;1324;-34
2022/09/15 03:27:35;;;;;;;;;;;;;;;24.93;nan;100252.66;5055039;28;926;-33
2022/09/15 03:30:03;;;;;;;;;;;;;;;24.88;nan;100254.91;5054881;28;1216;-32
2022/09/15 03:32:29;;;;;;;;;;;;;;;24.92;nan;100259.00;5054621;28;1029;-32
2022/09/15 03:34:57;;;;;;;;;;;;;;;24.97;nan;100258.56;5054584;28;1205;-36
2022/09/15 03:37:24;;;;;;;;;;;;;;;24.81;nan;100252.94;5054642;28;1977;-33
2022/09/15 03:39:51;;;;;;;;;;;;;;;24.94;nan;100257.03;5054666;28;1302;-33
2022/09/15 03:42:18;;;;;;;;;;;;;;;24.96;nan;100265.72;5054634;28;994;-28
2022/09/15 03:44:45;;;;;;;;;;;;;;;24.89;nan;100263.75;5054411;28;1295;-34
2022/09/15 03:47:12;;;;;;;;;;;;;;;24.96;nan;100270.19;5054642;28;1115;-37
2022/09/15 03:49:38;;;;;;;;;;;;;;;24.81;nan;100259.09;5054327;28;1425;-36
2022/09/15 03:52:05;;;;;;;;;;;;;;;24.96;nan;100263.06;5054701;28;1033;-31
2022/09/15 03:54:32;;;;;;;;;;;;;;;24.98;nan;100273.59;5054572;28;1511;-32
2022/09/15 03:56:58;;;;;;;;;;;;;;;24.77;nan;100262.16;5053869;28;1997;-31
2022/09/15 03:59:25;;;;;;;;;;;;;;;24.86;nan;100264.88;5053672;28;1290;-38
2022/09/15 04:01:52;;;;;;;;;;;;;;;24.86;nan;100274.69;5054160;28;978;-31
2022/09/15 04:04:18;;;;;;;;;;;;;;;24.86;nan;100269.38;5053970;28;1213;-32
2022/09/15 04:06:45;;;;;;;;;;;;;;;24.90;nan;100286.75;5053867;28;1116;-33
2022/09/15 04:09:12;;;;;;;;;;;;;;;24.68;nan;100276.31;5054013;28;867;-31
2022/09/15 04:11:39;;;;;;;;;;;;;;;24.76;nan;100274.63;5050994;28;1692;-33
2022/09/15 04:14:06;;;;;;;;;;;;;;;24.79;nan;100274.38;5041406;28;913;-34
2022/09/15 04:16:33;;;;;;;;;;;;;;;24.82;nan;100278.59;5036100;28;1914;-33
2022/09/15 04:19:00;;;;;;;;;;;;;;;24.79;nan;100284.16;5053251;28;729;-34
2022/09/15 04:21:26;;;;;;;;;;;;;;;24.76;nan;100290.63;5053669;28;1201;-30
2022/09/15 04:23:53;;;;;;;;;;;;;;;24.76;nan;100287.09;5040859;28;918;-36
2022/09/15 04:26:20;;;;;;;;;;;;;;;24.68;nan;100293.13;5033899;28;1205;-33
2022/09/15 04:28:46;;;;;;;;;;;;;;;24.69;nan;100289.47;5033769;28;991;-34
2022/09/15 04:31:14;;;;;;;;;;;;;;;24.70;nan;100290.31;5033979;28;1283;-31
2022/09/15 04:33:42;;;;;;;;;;;;;;;24.72;nan;100291.00;5033494;28;1112;-34
2022/09/15 04:36:10;;;;;;;;;;;;;;;24.77;nan;100291.47;5033542;28;1906;-33
2022/09/15 04:38:37;;;;;;;;;;;;;;;24.73;nan;100290.03;5034023;28;1274;-37
2022/09/15 04:41:04;;;;;;;;;;;;;;;24.76;nan;100301.28;5033829;28;1308;-34
2022/09/15 04:43:32;;;;;;;;;;;;;;;24.69;nan;100289.47;5033573;28;1180;-32
2022/09/15 04:45:59;;;;;;;;;;;;;;;24.73;nan;100298.88;5033545;28;1276;-33
2022/09/15 04:48:26;;;;;;;;;;;;;;;24.72;nan;100299.84;5033404;28;1351;-35
2022/09/15 04:50:52;;;;;;;;;;;;;;;24.72;nan;100304.31;5034079;28;1957;-30
2022/09/15 04:53:19;;;;;;;;;;;;;;;24.72;nan;100304.31;5044637;28;1155;-30
2022/09/15 04:55:46;;;;;;;;;;;;;;;24.67;nan;100303.91;5033171;28;1197;-35
2022/09/15 04:58:13;;;;;;;;;;;;;;;24.64;nan;100312.16;5051335;28;1972;-31
2022/09/15 05:00:41;;;;;;;;;;;;;;;24.68;nan;100294.94;5053264;28;1221;-31
2022/09/15 05:03:09;;;;;;;;;;;;;;;24.64;nan;100307.69;5045873;28;1150;-34
2022/09/15 05:05:36;;;;;;;;;;;;;;;24.59;nan;100309.06;5048631;28;1190;-32
2022/09/15 05:08:03;;;;;;;;;;;;;;;24.60;nan;100310.75;5033563;28;1252;-31
2022/09/15 05:10:30;;;;;;;;;;;;;;;24.64;nan;100302.38;5033378;28;1326;-31
2022/09/15 05:12:56;;;;;;;;;;;;;;;24.61;nan;100312.44;5033578;28;997;-32
2022/09/15 05:15:23;;;;;;;;;;;;;;;24.68;nan;100313.59;5032984;28;1209;-32
2022/09/15 05:17:50;;;;;;;;;;;;;;;24.70;nan;100308.97;5033395;28;1973;-32
2022/09/15 05:20:16;;;;;;;;;;;;;;;24.63;nan;100316.66;5033207;28;1308;-31
2022/09/15 05:22:43;;;;;;;;;;;;;;;24.64;nan;100317.50;5033268;28;1228;-30
2022/09/15 05:25:10;;;;;;;;;;;;;;;24.68;nan;100319.75;5032709;28;1191;-30
2022/09/15 05:27:38;;;;;;;;;;;;;;;24.65;nan;100324.50;5032746;28;954;-31
2022/09/15 05:30:05;;;;;;;;;;;;;;;24.64;nan;100323.66;5035888;28;1308;-31
2022/09/15 05:32:52;;;;;;;;;;;;;;;24.60;nan;100324.91;5046897;28;2016;-29
2022/09/15 05:35:19;;;;;;;;;;;;;;;24.67;nan;100328.72;5086400;28;1259;-31
2022/09/15 05:37:46;;;;;;;;;;;;;;;24.69;nan;100328.56;5054759;28;1914;-30
2022/09/15 05:40:12;;;;;;;;;;;;;;;24.66;nan;100340.34;5053549;28;1510;-35
2022/09/15 05:42:39;;;;;;;;;;;;;;;24.66;nan;100336.84;5050479;28;1043;-31
2022/09/15 05:45:06;;;;;;;;;;;;;;;24.68;nan;100348.22;5055574;28;1260;-32
2022/09/15 05:47:33;;;;;;;;;;;;;;;24.72;nan;100346.94;5048242;28;1116;-31
2022/09/15 05:49:59;;;;;;;;;;;;;;;24.70;nan;100354.25;5056245;28;1534;-33
2022/09/15 05:52:26;;;;;;;;;;;;;;;24.68;nan;100356.19;5056249;28;1137;-31
2022/09/15 05:54:53;;;;;;;;;;;;;;;24.74;nan;100361.00;5055419;28;1303;-33
2022/09/15 05:57:24;;;;;;;;;;;;;;;24.74;nan;100364.50;5055993;28;1902;-32
2022/09/15 05:59:51;;;;;;;;;;;;;;;24.77;nan;100366.03;5056069;28;1205;-32
2022/09/15 06:02:17;;;;;;;;;;;;;;;24.78;nan;100373.88;5061066;28;988;-30
2022/09/15 06:04:44;;;;;;;;;;;;;;;24.78;nan;100376.56;5055896;28;1291;-31
2022/09/15 06:07:11;;;;;;;;;;;;;;;24.84;nan;100378.72;5054833;28;1019;-32
2022/09/15 06:09:38;;;;;;;;;;;;;;;24.87;nan;100382.91;5044989;28;1616;-29
2022/09/15 06:12:05;;;;;;;;;;;;;;;24.87;nan;100383.75;5051177;28;1124;-31
2022/09/15 06:14:32;;;;;;;;;;;;;;;24.95;nan;100393.75;5051274;28;1365;-31
2022/09/15 06:16:59;;;;;;;;;;;;;;;24.95;nan;100391.94;5047906;28;1909;-28
2022/09/15 06:19:25;;;;;;;;;;;;;;;25.03;nan;100393.91;5031641;28;1233;-27
2022/09/15 06:21:52;;;;;;;;;;;;;;;25.01;nan;100393.22;5033354;28;1042;-31
2022/09/15 06:24:20;;;;;;;;;;;;;;;25.05;nan;100397.28;5033212;28;1291;-28
2022/09/15 06:26:47;;;;;;;;;;;;;;;25.03;nan;100393.91;5032679;28;1048;-28
2022/09/15 06:29:14;;;;;;;;;;;;;;;25.12;nan;100400.25;5032920;28;1217;-30
2022/09/15 06:31:40;;;;;;;;;;;;;;;25.00;nan;100399.53;5032730;28;1337;-29
2022/09/15 06:34:08;;;;;;;;;;;;;;;25.10;nan;100408.38;5032482;28;696;-28
2022/09/15 06:36:35;;;;;;;;;;;;;;;25.10;nan;100412.88;5032436;28;1986;-30
2022/09/15 06:39:03;;;;;;;;;;;;;;;25.14;nan;100412.44;5032717;28;1068;-29
2022/09/15 06:41:30;;;;;;;;;;;;;;;25.15;nan;100422.16;5030864;28;1278;-28
2022/09/15 06:44:20;;;;;;;;;;;;;;;25.16;nan;100412.31;5035261;28;2430;-30
2022/09/15 06:46:47;;;;;;;;;;;;;;;25.26;nan;100421.19;5047809;28;1256;-30
2022/09/15 06:49:13;;;;;;;;;;;;;;;25.19;nan;100418.22;5042013;28;1442;-31
2022/09/15 06:51:40;;;;;;;;;;;;;;;25.36;nan;100422.03;5045532;28;1629;-30
2022/09/15 06:54:07;;;;;;;;;;;;;;;25.23;nan;100432.97;5042053;28;972;-35
2022/09/15 06:56:34;;;;;;;;;;;;;;;25.27;nan;100437.03;5047547;28;1984;-29
2022/09/15 06:59:03;;;;;;;;;;;;;;;25.34;nan;100430.19;5048009;28;907;-30
2022/09/15 07:01:31;;;;;;;;;;;;;;;25.24;nan;100433.81;5054007;28;1231;-31
2022/09/15 07:03:59;;;;;;;;;;;;;;;25.18;nan;100432.53;5054088;28;1099;-28
2022/09/15 07:06:27;;;;;;;;;;;;;;;25.31;nan;100434.94;5053629;28;1209;-29
2022/09/15 07:08:54;;;;;;;;;;;;;;;25.37;nan;100440.59;5054471;28;828;-31
2022/09/15 07:11:20;;;;;;;;;;;;;;;25.39;nan;100449.28;5054039;28;1288;-28
2022/09/15 07:13:48;;;;;;;;;;;;;;;25.41;nan;100449.97;5054651;28;1583;-31
2022/09/15 07:16:15;;;;;;;;;;;;;;;25.40;nan;100444.78;5054333;28;1307;-31
2022/09/15 07:18:42;;;;;;;;;;;;;;;25.45;nan;100450.56;5054778;28;1981;-32
2022/09/15 07:21:13;;;;;;;;;;;;;;;25.44;nan;100457.69;5054002;28;1166;-29
2022/09/15 07:23:40;;;;;;;;;;;;;;;25.48;nan;100453.81;5053836;28;995;-33
2022/09/15 07:26:12;;;;;;;;;;;;;;;25.47;nan;100441.44;5052301;28;1213;-29
2022/09/15 07:28:40;;;;;;;;;;;;;;;25.45;nan;100448.72;5053349;28;1183;-29
2022/09/15 07:31:08;;;;;;;;;;;;;;;25.51;nan;100453.53;5052978;28;1169;-30
2022/09/15 07:33:35;;;;;;;;;;;;;;;25.52;nan;100460.56;5053309;28;1279;-31
2022/09/15 07:36:03;;;;;;;;;;;;;;;25.56;nan;100460.31;5053636;28;1229;-30
2022/09/15 07:38:29;;;;;;;;;;;;;;;25.57;nan;100461.97;5054363;28;1914;-31
2022/09/15 07:41:06;;;;;;;;;;;;;;;25.57;nan;100457.47;5053957;28;1287;-28
2022/09/15 07:43:33;;;;;;;;;;;;;;;25.60;nan;100467.03;5054119;28;1909;-30
2022/09/15 07:46:00;;;;;;;;;;;;;;;25.64;nan;100468.44;5054531;28;1311;-31
2022/09/15 07:48:27;;;;;;;;;;;;;;;25.62;nan;100478.41;5053617;28;1364;-32
2022/09/15 07:50:54;;;;;;;;;;;;;;;25.67;nan;100484.16;5052793;28;1197;-32
2022/09/15 07:53:21;;;;;;;;;;;;;;;25.65;nan;100481.66;5054427;28;1055;-29
2022/09/15 07:55:52;;;;;;;;;;;;;;;25.65;nan;100481.66;5046559;28;1557;-29
2022/09/15 07:58:19;;;;;;;;;;;;;;;25.74;nan;100479.97;5049309;28;1989;-28
2022/09/15 08:00:47;;;;;;;;;;;;;;;25.77;nan;100485.03;5037371;28;1350;-29
2022/09/15 08:03:14;;;;;;;;;;;;;;;25.79;nan;100488.41;5034147;28;1073;-31
2022/09/15 08:05:41;;;;;;;;;;;;;;;25.83;nan;100492.47;5039926;28;1299;-30
2022/09/15 08:08:11;;;;;;;;;;;;;;;25.87;nan;100491.22;5053674;28;1057;-33
2022/09/15 08:10:39;;;;;;;;;;;;;;;25.89;nan;100491.94;5052404;28;1308;-30
2022/09/15 08:13:05;;;;;;;;;;;;;;;25.90;nan;100493.63;5053191;28;1394;-30
2022/09/15 08:15:34;;;;;;;;;;;;;;;25.94;nan;100497.69;5053302;28;1225;-30
2022/09/15 08:18:01;;;;;;;;;;;;;;;25.97;nan;100497.41;5053369;28;1914;-31
2022/09/15 08:20:27;;;;;;;;;;;;;;;26.02;nan;100500.50;5038368;28;1318;-32
2022/09/15 08:22:54;;;;;;;;;;;;;;;26.06;nan;100507.25;5039687;28;1653;-35
2022/09/15 08:25:21;;;;;;;;;;;;;;;26.05;nan;100501.06;5037607;28;1347;-29
2022/09/15 08:27:48;;;;;;;;;;;;;;;26.08;nan;100506.09;5048615;28;1384;-29
2022/09/15 08:30:14;;;;;;;;;;;;;;;26.13;nan;100505.69;5037712;28;1327;-30
2022/09/15 08:32:41;;;;;;;;;;;;;;;26.16;nan;100505.44;5034459;28;1277;-28
2022/09/15 08:35:08;;;;;;;;;;;;;;;26.15;nan;100516.22;5033510;28;1280;-32
2022/09/15 08:37:34;;;;;;;;;;;;;;;26.18;nan;100514.16;5033529;28;1910;-32
2022/09/15 08:40:02;;;;;;;;;;;;;;;26.21;nan;100511.19;5036089;28;1264;-30
2022/09/15 08:42:29;;;;;;;;;;;;;;;26.23;nan;100525.28;5033453;28;1022;-33
2022/09/15 08:45:01;;;;;;;;;;;;;;;26.26;nan;100519.66;5033675;28;1269;-30
2022/09/15 08:47:34;;;;;;;;;;;;;;;26.26;nan;100516.13;5033723;28;1127;-33
2022/09/15 08:50:04;;;;;;;;;;;;;;;26.28;nan;100523.00;5033485;28;1500;-33
2022/09/15 08:52:37;;;;;;;;;;;;;;;26.33;nan;100523.41;5045842;28;1093;-29
2022/09/15 08:55:11;;;;;;;;;;;;;;;26.31;nan;100528.06;5046945;28;1387;-30
2022/09/15 08:57:38;;;;;;;;;;;;;;;26.33;nan;100520.75;5037361;28;1910;-27
2022/09/15 09:00:06;;;;;;;;;;;;;;;26.36;nan;100523.13;5032774;28;1242;-27
2022/09/15 09:02:51;;;;;;;;;;;;;;;26.38;nan;100518.53;5032923;28;1025;-31
2022/09/15 09:05:30;;;;;;;;;;;;;;;26.37;nan;100514.16;5032611;28;1265;-27
2022/09/15 09:08:10;;;;;;;;;;;;;;;26.39;nan;100517.50;5033182;28;1143;-32
2022/09/15 09:10:44;;;;;;;;;;;;;;;26.41;nan;100520.06;5046567;28;1294;-29
2022/09/15 09:13:13;;;;;;;;;;;;;;;26.47;nan;100527.50;5037506;28;1177;-32
2022/09/15 09:16:15;;;;;;;;;;;;;;;26.46;nan;100536.50;5032300;28;1312;-34
2022/09/15 09:18:48;;;;;;;;;;;;;;;26.47;nan;100531.03;5063474;28;1914;-32
2022/09/15 09:21:22;;;;;;;;;;;;;;;26.47;nan;100533.69;5054386;28;1256;-30
2022/09/15 09:24:02;;;;;;;;;;;;;;;26.49;nan;100528.19;5037121;28;684;-31
2022/09/15 09:26:30;;;;;;;;;;;;;;;26.50;nan;100528.06;5032224;28;1166;-29
2022/09/15 09:28:57;;;;;;;;;;;;;;;26.52;nan;100525.25;5036892;28;1128;-31
2022/09/15 09:31:26;;;;;;;;;;;;;;;26.55;nan;100515.13;5038360;28;1265;-32
2022/09/15 09:34:11;;;;;;;;;;;;;;;26.59;nan;100518.34;5032970;28;1043;-30
2022/09/15 09:36:38;;;;;;;;;;;;;;;26.59;nan;100515.69;5032981;28;1280;-34
2022/09/15 09:39:05;;;;;;;;;;;;;;;26.58;nan;100514.81;5047513;28;1914;-29
2022/09/15 09:41:35;;;;;;;;;;;;;;;26.59;nan;100521.88;5032776;28;1311;-32
2022/09/15 09:44:03;;;;;;;;;;;;;;;26.60;nan;100531.53;5051858;28;1136;-34
2022/09/15 09:46:30;;;;;;;;;;;;;;;26.66;nan;100527.44;5032697;28;1276;-34
2022/09/15 09:49:02;;;;;;;;;;;;;;;26.68;nan;100520.16;5032267;28;1325;-32
2022/09/15 09:51:28;;;;;;;;;;;;;;;26.68;nan;100524.66;5044505;28;1296;-31
2022/09/15 09:53:55;;;;;;;;;;;;;;;26.68;nan;100528.16;5051731;28;727;-32
2022/09/15 09:56:23;;;;;;;;;;;;;;;26.69;nan;100529.03;5051828;28;1217;-33
2022/09/15 09:58:51;;;;;;;;;;;;;;;26.70;nan;100530.69;5051695;28;1993;-30
2022/09/15 10:01:19;;;;;;;;;;;;;;;26.72;nan;100523.38;5051642;28;1229;-28
2022/09/15 10:03:45;;;;;;;;;;;;;;;26.75;nan;100529.25;5052068;28;910;-31
2022/09/15 10:06:15;;;;;;;;;;;;;;;26.76;nan;100527.44;5051561;28;1130;-29
2022/09/15 10:08:56;;;;;;;;;;;;;;;26.78;nan;100522.81;5051592;28;914;-32
2022/09/15 10:11:41;;;;;;;;;;;;;;;26.80;nan;100518.19;5035818;28;1291;-31
2022/09/15 10:14:23;;;;;;;;;;;;;;;26.78;nan;100515.59;5035448;28;1478;-31
2022/09/15 10:17:01;;;;;;;;;;;;;;;26.77;nan;100513.94;5051116;28;1085;-28
2022/09/15 10:19:29;;;;;;;;;;;;;;;26.82;nan;100513.53;5052921;28;1914;-28
2022/09/15 10:21:57;;;;;;;;;;;;;;;26.83;nan;100507.22;5035875;28;1046;-32
2022/09/15 10:24:23;;;;;;;;;;;;;;;26.82;nan;100505.50;5035626;28;1339;-32
2022/09/15 10:26:50;;;;;;;;;;;;;;;26.80;nan;100505.69;5036003;28;1030;-30
2022/09/15 10:29:17;;;;;;;;;;;;;;;26.85;nan;100506.06;5035579;28;1264;-29
2022/09/15 10:31:44;;;;;;;;;;;;;;;26.86;nan;100497.06;5038652;28;1302;-28
2022/09/15 10:34:23;;;;;;;;;;;;;;;26.87;nan;100503.28;5033680;28;957;-28
2022/09/15 10:36:52;;;;;;;;;;;;;;;26.90;nan;100498.44;5033694;28;1144;-30
2022/09/15 10:39:19;;;;;;;;;;;;;;;26.88;nan;100500.44;5045367;28;1910;-33
2022/09/15 10:41:58;;;;;;;;;;;;;;;26.91;nan;100494.81;5033141;28;1018;-30
2022/09/15 10:44:25;;;;;;;;;;;;;;;26.96;nan;100497.03;5033393;28;1374;-29
2022/09/15 10:47:04;;;;;;;;;;;;;;;26.94;nan;100502.53;5033391;28;1115;-30
2022/09/15 10:49:50;;;;;;;;;;;;;;;26.90;nan;100492.28;5035110;28;1560;-31
2022/09/15 10:52:29;;;;;;;;;;;;;;;26.93;nan;100492.00;5050207;28;1286;-33
2022/09/15 10:55:07;;;;;;;;;;;;;;;26.94;nan;100493.66;5054932;28;1288;-29
2022/09/15 10:57:46;;;;;;;;;;;;;;;26.94;nan;100497.19;5054655;28;1977;-28
2022/09/15 11:00:19;;;;;;;;;;;;;;;26.99;nan;100494.91;5054066;28;1264;-32
2022/09/15 11:03:04;;;;;;;;;;;;;;;26.98;nan;100497.72;5054526;28;994;-32
2022/09/15 11:05:31;;;;;;;;;;;;;;;26.99;nan;100486.06;5086265;28;1184;-29
2022/09/15 11:08:04;;;;;;;;;;;;;;;27.01;nan;100489.41;5054619;28;1001;-34
2022/09/15 11:10:34;;;;;;;;;;;;;;;27.00;nan;100488.56;5054048;28;1358;-36
2022/09/15 11:13:10;;;;;;;;;;;;;;;26.99;nan;100478.84;5054027;28;930;-30
2022/09/15 11:15:53;;;;;;;;;;;;;;;27.00;nan;100477.03;5054277;28;1347;-28
2022/09/15 11:18:38;;;;;;;;;;;;;;;27.01;nan;100484.91;5054225;28;1980;-32
2022/09/15 11:21:11;;;;;;;;;;;;;;;27.02;nan;100475.91;5053554;28;1249;-27
2022/09/15 11:23:42;;;;;;;;;;;;;;;27.04;nan;100481.09;5053465;28;1163;-28
2022/09/15 11:26:15;;;;;;;;;;;;;;;27.09;nan;100478.81;5045076;28;1419;-29
2022/09/15 11:28:49;;;;;;;;;;;;;;;27.29;nan;100476.91;5038367;28;1482;-31
2022/09/15 11:31:20;;;;;;;;;;;;;;;27.25;nan;100470.16;5045938;28;1335;-28
2022/09/15 11:33:57;;;;;;;;;;;;;;;27.31;nan;100472.25;5059484;28;699;-28
2022/09/15 11:36:29;;;;;;;;;;;;;;;27.37;nan;100467.16;5042245;28;1370;-28
2022/09/15 11:39:15;;;;;;;;;;;;;;;27.35;nan;100471.81;5031041;28;1902;-30
2022/09/15 11:41:51;;;;;;;;;;;;;;;27.31;nan;100470.41;5034653;28;1168;-30
2022/09/15 11:44:28;;;;;;;;;;;;;;;27.38;nan;100466.16;5045791;28;1429;-28
2022/09/15 11:47:04;;;;;;;;;;;;;;;27.35;nan;100471.81;5063264;28;981;-30
2022/09/15 11:49:40;;;;;;;;;;;;;;;27.37;nan;100469.81;5064585;28;1315;-29
2022/09/15 11:52:17;;;;;;;;;;;;;;;27.42;nan;100467.56;5033854;28;1171;-29
2022/09/15 11:54:52;;;;;;;;;;;;;;;27.49;nan;100465.97;5049434;28;1335;-29
2022/09/15 11:57:24;;;;;;;;;;;;;;;27.55;nan;100464.53;5033680;28;1015;-30
2022/09/15 11:59:56;;;;;;;;;;;;;;;27.47;nan;100470.66;5031256;28;1985;-30
2022/09/15 12:02:42;;;;;;;;;;;;;;;27.62;nan;100466.47;5030350;28;1036;-30
2022/09/15 12:05:27;;;;;;;;;;;;;;;27.63;nan;100452.06;5074546;28;1240;-31
2022/09/15 12:07:57;;;;;;;;;;;;;;;27.54;nan;100466.34;5029840;28;1339;-27
2022/09/15 12:10:29;;;;;;;;;;;;;;;27.51;nan;100463.16;5036520;28;1507;-28
2022/09/15 12:12:58;;;;;;;;;;;;;;;27.46;nan;100462.75;5037454;28;1451;-29
2022/09/15 12:15:28;;;;;;;;;;;;;;;27.59;nan;100453.38;5044764;28;1398;-31
2022/09/15 12:18:01;;;;;;;;;;;;;;;27.59;nan;100450.72;5047584;28;1914;-28
2022/09/15 12:20:54;;;;;;;;;;;;;;;27.62;nan;100452.25;5045762;28;1332;-30
2022/09/15 12:23:31;;;;;;;;;;;;;;;27.67;nan;100450.78;5044826;28;1196;-29
2022/09/15 12:26:17;;;;;;;;;;;;;;;27.62;nan;100455.75;5045306;28;1347;-29
2022/09/15 12:29:03;;;;;;;;;;;;;;;27.59;nan;100453.38;5042689;28;1205;-37
2022/09/15 12:31:33;;;;;;;;;;;;;;;27.59;nan;100457.91;5043968;28;1431;-30
2022/09/15 12:34:02;;;;;;;;;;;;;;;27.65;nan;100452.78;5042974;28;1290;-30
2022/09/15 12:36:32;;;;;;;;;;;;;;;27.72;nan;100446.81;5043540;28;1307;-32
2022/09/15 12:38:59;;;;;;;;;;;;;;;27.67;nan;100450.78;5046517;28;1914;-30
2022/09/15 12:41:27;;;;;;;;;;;;;;;27.73;nan;100443.13;5045091;28;1319;-28
2022/09/15 12:43:54;;;;;;;;;;;;;;;27.65;nan;100436.72;5046654;28;1172;-32
2022/09/15 12:46:22;;;;;;;;;;;;;;;27.63;nan;100436.03;5045388;28;1249;-30
2022/09/15 12:48:49;;;;;;;;;;;;;;;27.60;nan;100430.97;5044597;28;1364;-31
2022/09/15 12:51:24;;;;;;;;;;;;;;;27.68;nan;100430.22;5045600;28;1268;-31
2022/09/15 12:53:57;;;;;;;;;;;;;;;27.72;nan;100428.09;5043555;28;1149;-29
2022/09/15 12:56:25;;;;;;;;;;;;;;;27.71;nan;100423.72;5044131;28;1336;-31
2022/09/15 12:58:52;;;;;;;;;;;;;;;27.71;nan;100413.88;5044885;28;1910;-30
2022/09/15 13:01:22;;;;;;;;;;;;;;;27.77;nan;100417.75;5045964;28;1296;-29
2022/09/15 13:03:48;;;;;;;;;;;;;;;27.80;nan;100415.63;5045148;28;1211;-29
2022/09/15 13:06:15;;;;;;;;;;;;;;;27.87;nan;100415.84;5044563;28;1323;-32
2022/09/15 13:08:42;;;;;;;;;;;;;;;27.89;nan;100416.53;5045820;28;1290;-29
2022/09/15 13:11:21;;;;;;;;;;;;;;;27.86;nan;100417.69;5043188;28;1482;-33
2022/09/15 13:14:05;;;;;;;;;;;;;;;27.81;nan;100413.78;5045756;28;1016;-30
2022/09/15 13:16:35;;;;;;;;;;;;;;;27.83;nan;100401.09;5045490;28;1296;-33
2022/09/15 13:19:06;;;;;;;;;;;;;;;27.84;nan;100408.97;5043702;28;1972;-31
2022/09/15 13:21:34;;;;;;;;;;;;;;;27.85;nan;100409.78;5043661;28;1395;-30
2022/09/15 13:24:03;;;;;;;;;;;;;;;27.84;nan;100403.63;5044400;28;1153;-29